sensor_id;sensor_type;location;lat;lon;timestamp;pressure;altitude;pressure_sealevel;temperature;humidity
55044;BME280;54902;50.420;18.854;2023-01-15T00:00:25;100744.16;;;5.61;73.32
55044;BME280;54902;50.420;18.854;2023-01-15T00:00:55;100740.45;;;5.62;73.30
55044;BME280;54902;50.420;18.854;2023-01-15T00:01:29;100748.58;;;5.62;73.31
55044;BME280;54902;50.420;18.854;2023-01-15T00:02:00;100745.02;;;5.62;73.31
55044;BME280;54902;50.420;18.854;2023-01-15T00:02:31;100715.04;;;5.51;73.28
55044;BME280;54902;50.420;18.854;2023-01-15T00:03:02;100733.32;;;5.61;73.32
55044;BME280;54902;50.420;18.854;2023-01-15T00:03:33;100735.03;;;5.62;73.30
55044;BME280;54902;50.420;18.854;2023-01-15T00:04:06;100729.61;;;5.62;73.29
55044;BME280;54902;50.420;18.854;2023-01-15T00:04:37;100724.19;;;5.62;73.29
55044;BME280;54902;50.420;18.854;2023-01-15T00:05:08;100724.19;;;5.62;73.35
55044;BME280;54902;50.420;18.854;2023-01-15T00:05:39;100722.37;;;5.63;73.24
55044;BME280;54902;50.420;18.854;2023-01-15T00:06:10;100724.19;;;5.62;73.21
55044;BME280;54902;50.420;18.854;2023-01-15T00:06:41;100724.19;;;5.62;73.21
55044;BME280;54902;50.420;18.854;2023-01-15T00:07:12;100724.19;;;5.62;73.20
55044;BME280;54902;50.420;18.854;2023-01-15T00:07:43;100724.09;;;5.64;73.20
55044;BME280;54902;50.420;18.854;2023-01-15T00:08:14;100725.08;;;5.63;73.20
55044;BME280;54902;50.420;18.854;2023-01-15T00:08:46;100730.40;;;5.64;73.21
55044;BME280;54902;50.420;18.854;2023-01-15T00:09:17;100729.61;;;5.62;73.21
55044;BME280;54902;50.420;18.854;2023-01-15T00:09:48;100727.79;;;5.63;73.21
55044;BME280;54902;50.420;18.854;2023-01-15T00:10:20;100729.61;;;5.62;73.20
55044;BME280;54902;50.420;18.854;2023-01-15T00:10:51;100728.65;;;5.63;73.21
55044;BME280;54902;50.420;18.854;2023-01-15T00:11:22;100725.94;;;5.63;73.16
55044;BME280;54902;50.420;18.854;2023-01-15T00:11:53;100737.64;;;5.64;73.16
55044;BME280;54902;50.420;18.854;2023-01-15T00:12:24;100723.23;;;5.63;73.17
55044;BME280;54902;50.420;18.854;2023-01-15T00:12:55;100725.94;;;5.63;73.18
55044;BME280;54902;50.420;18.854;2023-01-15T00:13:26;100728.65;;;5.63;73.17
55044;BME280;54902;50.420;18.854;2023-01-15T00:13:58;100733.11;;;5.64;73.19
55044;BME280;54902;50.420;18.854;2023-01-15T00:14:30;100726.80;;;5.64;73.22
55044;BME280;54902;50.420;18.854;2023-01-15T00:15:00;100727.69;;;5.64;73.20
55044;BME280;54902;50.420;18.854;2023-01-15T00:15:31;100725.94;;;5.63;73.23
55044;BME280;54902;50.420;18.854;2023-01-15T00:16:08;100734.07;;;5.63;73.20
55044;BME280;54902;50.420;18.854;2023-01-15T00:16:39;100727.69;;;5.64;73.19
55044;BME280;54902;50.420;18.854;2023-01-15T00:17:10;100731.36;;;5.63;73.18
55044;BME280;54902;50.420;18.854;2023-01-15T00:17:41;100722.27;;;5.64;73.19
55044;BME280;54902;50.420;18.854;2023-01-15T00:18:12;100738.53;;;5.64;73.18
55044;BME280;54902;50.420;18.854;2023-01-15T00:18:51;100732.22;;;5.64;73.17
55044;BME280;54902;50.420;18.854;2023-01-15T00:19:23;100724.98;;;5.64;73.21
55044;BME280;54902;50.420;18.854;2023-01-15T00:19:54;100725.94;;;5.63;73.20
55044;BME280;54902;50.420;18.854;2023-01-15T00:20:25;100728.65;;;5.63;73.22
55044;BME280;54902;50.420;18.854;2023-01-15T00:21:02;100726.80;;;5.64;73.23
55044;BME280;54902;50.420;18.854;2023-01-15T00:21:34;100722.27;;;5.64;73.23
55044;BME280;54902;50.420;18.854;2023-01-15T00:22:05;100727.69;;;5.64;73.22
55044;BME280;54902;50.420;18.854;2023-01-15T00:22:36;100724.98;;;5.64;73.22
55044;BME280;54902;50.420;18.854;2023-01-15T00:23:07;100716.84;;;5.64;73.23
55044;BME280;54902;50.420;18.854;2023-01-15T00:23:48;100724.98;;;5.64;73.24
55044;BME280;54902;50.420;18.854;2023-01-15T00:24:31;100717.70;;;5.65;73.26
55044;BME280;54902;50.420;18.854;2023-01-15T00:25:14;100715.89;;;5.65;73.25
55044;BME280;54902;50.420;18.854;2023-01-15T00:25:57;100713.19;;;5.65;73.25
55044;BME280;54902;50.420;18.854;2023-01-15T00:26:40;100706.87;;;5.65;73.27
55044;BME280;54902;50.420;18.854;2023-01-15T00:27:23;100706.77;;;5.66;73.23
55044;BME280;54902;50.420;18.854;2023-01-15T00:28:06;100709.47;;;5.66;73.20
55044;BME280;54902;50.420;18.854;2023-01-15T00:28:37;100708.62;;;5.66;73.19
55044;BME280;54902;50.420;18.854;2023-01-15T00:29:07;100710.36;;;5.67;73.18
55044;BME280;54902;50.420;18.854;2023-01-15T00:29:38;100712.18;;;5.66;73.17
55044;BME280;54902;50.420;18.854;2023-01-15T00:30:12;100703.20;;;5.66;73.17
55044;BME280;54902;50.420;18.854;2023-01-15T00:30:43;100709.47;;;5.66;73.16
55044;BME280;54902;50.420;18.854;2023-01-15T00:31:14;100713.94;;;5.67;73.15
55044;BME280;54902;50.420;18.854;2023-01-15T00:32:28;100705.80;;;5.67;73.14
55044;BME280;54902;50.420;18.854;2023-01-15T00:32:59;100707.66;;;5.67;73.06
55044;BME280;54902;50.420;18.854;2023-01-15T00:33:30;100708.52;;;5.67;73.00
55044;BME280;54902;50.420;18.854;2023-01-15T00:34:02;100705.80;;;5.67;73.01
55044;BME280;54902;50.420;18.854;2023-01-15T00:34:34;100710.26;;;5.68;73.03
55044;BME280;54902;50.420;18.854;2023-01-15T00:35:06;100712.98;;;5.68;73.04
55044;BME280;54902;50.420;18.854;2023-01-15T00:35:37;100707.55;;;5.68;73.08
55044;BME280;54902;50.420;18.854;2023-01-15T00:36:08;100705.80;;;5.67;73.08
55044;BME280;54902;50.420;18.854;2023-01-15T00:36:39;100704.84;;;5.68;73.08
55044;BME280;54902;50.420;18.854;2023-01-15T00:37:10;100702.13;;;5.68;73.08
55044;BME280;54902;50.420;18.854;2023-01-15T00:37:41;100701.24;;;5.68;72.99
55044;BME280;54902;50.420;18.854;2023-01-15T00:38:12;100709.30;;;5.69;73.02
55044;BME280;54902;50.420;18.854;2023-01-15T00:38:43;100701.17;;;5.69;72.99
55044;BME280;54902;50.420;18.854;2023-01-15T00:39:14;100697.56;;;5.69;73.09
55044;BME280;54902;50.420;18.854;2023-01-15T00:39:45;100706.59;;;5.69;72.98
55044;BME280;54902;50.420;18.854;2023-01-15T00:40:20;100697.56;;;5.69;72.97
55044;BME280;54902;50.420;18.854;2023-01-15T00:40:51;100699.31;;;5.70;72.97
55044;BME280;54902;50.420;18.854;2023-01-15T00:41:22;100698.46;;;5.69;72.97
55044;BME280;54902;50.420;18.854;2023-01-15T00:41:54;100690.33;;;5.69;72.93
55044;BME280;54902;50.420;18.854;2023-01-15T00:42:25;100705.59;;;5.70;72.91
55044;BME280;54902;50.420;18.854;2023-01-15T00:42:56;100698.46;;;5.69;72.87
55044;BME280;54902;50.420;18.854;2023-01-15T00:43:27;100692.94;;;5.71;72.87
55044;BME280;54902;50.420;18.854;2023-01-15T00:43:58;100692.04;;;5.70;72.89
55044;BME280;54902;50.420;18.854;2023-01-15T00:44:29;100694.75;;;5.70;72.88
55044;BME280;54902;50.420;18.854;2023-01-15T00:45:03;100694.75;;;5.70;72.89
55044;BME280;54902;50.420;18.854;2023-01-15T00:45:42;100691.09;;;5.71;72.89
55044;BME280;54902;50.420;18.854;2023-01-15T00:46:13;100696.50;;;5.71;72.87
55044;BME280;54902;50.420;18.854;2023-01-15T00:46:44;100691.09;;;5.71;72.86
55044;BME280;54902;50.420;18.854;2023-01-15T00:47:15;100685.66;;;5.71;72.87
55044;BME280;54902;50.420;18.854;2023-01-15T00:47:46;100683.84;;;5.72;72.81
55044;BME280;54902;50.420;18.854;2023-01-15T00:48:20;100685.66;;;5.71;72.79
55044;BME280;54902;50.420;18.854;2023-01-15T00:48:51;100685.66;;;5.71;72.71
55044;BME280;54902;50.420;18.854;2023-01-15T00:49:22;100692.82;;;5.72;72.80
55044;BME280;54902;50.420;18.854;2023-01-15T00:49:52;100687.41;;;5.72;72.77
55044;BME280;54902;50.420;18.854;2023-01-15T00:50:23;100692.82;;;5.72;72.83
55044;BME280;54902;50.420;18.854;2023-01-15T00:50:54;100688.27;;;5.73;72.71
55044;BME280;54902;50.420;18.854;2023-01-15T00:51:25;100690.11;;;5.72;72.70
55044;BME280;54902;50.420;18.854;2023-01-15T00:51:56;100691.87;;;5.73;72.72
55044;BME280;54902;50.420;18.854;2023-01-15T00:52:27;100690.87;;;5.74;72.72
55044;BME280;54902;50.420;18.854;2023-01-15T00:52:58;100686.45;;;5.73;72.75
55044;BME280;54902;50.420;18.854;2023-01-15T00:53:30;100683.74;;;5.73;72.73
55044;BME280;54902;50.420;18.854;2023-01-15T00:54:01;100678.32;;;5.73;72.70
55044;BME280;54902;50.420;18.854;2023-01-15T00:54:32;100683.74;;;5.73;72.71
55044;BME280;54902;50.420;18.854;2023-01-15T00:55:04;100681.88;;;5.74;72.63
55044;BME280;54902;50.420;18.854;2023-01-15T00:55:36;100680.03;;;5.74;72.61
55044;BME280;54902;50.420;18.854;2023-01-15T00:56:07;100673.76;;;5.74;72.64
55044;BME280;54902;50.420;18.854;2023-01-15T00:56:38;100667.48;;;5.73;72.66
55044;BME280;54902;50.420;18.854;2023-01-15T00:57:09;100674.72;;;5.73;72.66
55044;BME280;54902;50.420;18.854;2023-01-15T00:57:41;100671.05;;;5.74;72.64
55044;BME280;54902;50.420;18.854;2023-01-15T00:58:12;100675.49;;;5.75;72.64
55044;BME280;54902;50.420;18.854;2023-01-15T00:58:43;100669.19;;;5.74;72.64
55044;BME280;54902;50.420;18.854;2023-01-15T00:59:17;100658.34;;;5.74;72.65
55044;BME280;54902;50.420;18.854;2023-01-15T00:59:48;100660.13;;;5.75;72.67
55044;BME280;54902;50.420;18.854;2023-01-15T01:00:19;100660.13;;;5.75;72.67
55044;BME280;54902;50.420;18.854;2023-01-15T01:00:54;100661.88;;;5.76;72.71
55044;BME280;54902;50.420;18.854;2023-01-15T01:01:25;100659.16;;;5.76;72.70
55044;BME280;54902;50.420;18.854;2023-01-15T01:01:56;100653.75;;;5.76;72.70
55044;BME280;54902;50.420;18.854;2023-01-15T01:02:27;100652.79;;;5.77;72.70
55044;BME280;54902;50.420;18.854;2023-01-15T01:02:58;100661.88;;;5.76;72.71
55044;BME280;54902;50.420;18.854;2023-01-15T01:03:29;100661.88;;;5.76;72.74
55044;BME280;54902;50.420;18.854;2023-01-15T01:04:00;100660.91;;;5.77;72.71
55044;BME280;54902;50.420;18.854;2023-01-15T01:04:31;100647.36;;;5.77;72.72
55044;BME280;54902;50.420;18.854;2023-01-15T01:05:02;100649.08;;;5.78;72.73
55044;BME280;54902;50.420;18.854;2023-01-15T01:05:33;100649.08;;;5.78;72.70
55044;BME280;54902;50.420;18.854;2023-01-15T01:06:05;100643.66;;;5.78;72.68
55044;BME280;54902;50.420;18.854;2023-01-15T01:06:36;100632.83;;;5.78;72.70
55044;BME280;54902;50.420;18.854;2023-01-15T01:07:07;100639.13;;;5.78;72.68
55044;BME280;54902;50.420;18.854;2023-01-15T01:07:38;100637.27;;;5.79;72.66
55044;BME280;54902;50.420;18.854;2023-01-15T01:08:09;100635.45;;;5.79;72.66
55044;BME280;54902;50.420;18.854;2023-01-15T01:08:40;100634.56;;;5.79;72.60
55044;BME280;54902;50.420;18.854;2023-01-15T01:09:14;100636.30;;;5.80;72.61
55044;BME280;54902;50.420;18.854;2023-01-15T01:09:45;100634.56;;;5.79;72.64
55044;BME280;54902;50.420;18.854;2023-01-15T01:10:16;100625.46;;;5.80;72.65
55044;BME280;54902;50.420;18.854;2023-01-15T01:10:47;100637.16;;;5.80;72.66
55044;BME280;54902;50.420;18.854;2023-01-15T01:11:20;100630.03;;;5.79;72.65
55044;BME280;54902;50.420;18.854;2023-01-15T01:11:55;100630.88;;;5.80;72.65
55044;BME280;54902;50.420;18.854;2023-01-15T01:12:26;100626.32;;;5.80;72.65
55044;BME280;54902;50.420;18.854;2023-01-15T01:12:58;100627.22;;;5.81;72.57
55044;BME280;54902;50.420;18.854;2023-01-15T01:13:29;100637.16;;;5.80;72.58
55044;BME280;54902;50.420;18.854;2023-01-15T01:14:00;100627.22;;;5.81;72.59
55044;BME280;54902;50.420;18.854;2023-01-15T01:14:35;100635.34;;;5.81;72.57
55044;BME280;54902;50.420;18.854;2023-01-15T01:15:07;100628.93;;;5.82;72.58
55044;BME280;54902;50.420;18.854;2023-01-15T01:15:39;100627.22;;;5.81;72.55
55044;BME280;54902;50.420;18.854;2023-01-15T01:16:53;100634.36;;;5.82;72.51
55044;BME280;54902;50.420;18.854;2023-01-15T01:17:24;100633.49;;;5.81;72.53
55044;BME280;54902;50.420;18.854;2023-01-15T01:17:55;100635.24;;;5.82;72.52
55044;BME280;54902;50.420;18.854;2023-01-15T01:18:26;100633.49;;;5.81;72.49
55044;BME280;54902;50.420;18.854;2023-01-15T01:18:58;100631.65;;;5.82;72.52
55044;BME280;54902;50.420;18.854;2023-01-15T01:19:31;100628.07;;;5.81;72.54
55044;BME280;54902;50.420;18.854;2023-01-15T01:20:03;100634.36;;;5.82;72.52
55044;BME280;54902;50.420;18.854;2023-01-15T01:20:37;100635.34;;;5.81;72.52
55044;BME280;54902;50.420;18.854;2023-01-15T01:21:08;100628.07;;;5.81;72.54
55044;BME280;54902;50.420;18.854;2023-01-15T01:21:40;100631.65;;;5.82;72.56
55044;BME280;54902;50.420;18.854;2023-01-15T01:22:11;100623.51;;;5.82;72.56
55044;BME280;54902;50.420;18.854;2023-01-15T01:22:43;100622.66;;;5.81;72.55
55044;BME280;54902;50.420;18.854;2023-01-15T01:23:14;100625.36;;;5.81;72.55
55044;BME280;54902;50.420;18.854;2023-01-15T01:23:45;100631.65;;;5.82;72.56
55044;BME280;54902;50.420;18.854;2023-01-15T01:24:18;100623.51;;;5.82;72.57
55044;BME280;54902;50.420;18.854;2023-01-15T01:24:49;100626.21;;;5.82;72.53
55044;BME280;54902;50.420;18.854;2023-01-15T01:25:20;100627.97;;;5.83;72.40
55044;BME280;54902;50.420;18.854;2023-01-15T01:25:52;100623.51;;;5.82;72.43
55044;BME280;54902;50.420;18.854;2023-01-15T01:26:23;100615.38;;;5.82;72.46
55044;BME280;54902;50.420;18.854;2023-01-15T01:26:54;100615.38;;;5.82;72.42
55044;BME280;54902;50.420;18.854;2023-01-15T01:27:26;100611.81;;;5.81;72.44
55044;BME280;54902;50.420;18.854;2023-01-15T01:27:57;100618.98;;;5.82;72.47
55044;BME280;54902;50.420;18.854;2023-01-15T01:28:28;100618.98;;;5.82;72.48
55044;BME280;54902;50.420;18.854;2023-01-15T01:28:59;100608.13;;;5.82;72.48
55044;BME280;54902;50.420;18.854;2023-01-15T01:29:30;100613.55;;;5.82;72.45
55044;BME280;54902;50.420;18.854;2023-01-15T01:30:01;100601.83;;;5.82;72.48
55044;BME280;54902;50.420;18.854;2023-01-15T01:30:32;100607.25;;;5.82;72.46
55044;BME280;54902;50.420;18.854;2023-01-15T01:31:04;100610.84;;;5.82;72.48
55044;BME280;54902;50.420;18.854;2023-01-15T01:31:35;100597.30;;;5.82;72.45
55044;BME280;54902;50.420;18.854;2023-01-15T01:32:06;100603.57;;;5.83;72.32
55044;BME280;54902;50.420;18.854;2023-01-15T01:32:37;100603.57;;;5.83;72.31
55044;BME280;54902;50.420;18.854;2023-01-15T01:33:08;100602.72;;;5.82;72.25
55044;BME280;54902;50.420;18.854;2023-01-15T01:33:39;100602.72;;;5.82;72.25
55044;BME280;54902;50.420;18.854;2023-01-15T01:34:11;100613.55;;;5.82;72.29
55044;BME280;54902;50.420;18.854;2023-01-15T01:34:43;100599.13;;;5.82;72.27
55044;BME280;54902;50.420;18.854;2023-01-15T01:35:14;100598.15;;;5.83;72.28
55044;BME280;54902;50.420;18.854;2023-01-15T01:35:49;100599.13;;;5.82;72.27
55044;BME280;54902;50.420;18.854;2023-01-15T01:36:25;100601.83;;;5.82;72.27
55044;BME280;54902;50.420;18.854;2023-01-15T01:36:57;100601.83;;;5.82;72.30
55044;BME280;54902;50.420;18.854;2023-01-15T01:37:28;100599.13;;;5.82;72.32
55044;BME280;54902;50.420;18.854;2023-01-15T01:37:59;100599.13;;;5.82;72.33
55044;BME280;54902;50.420;18.854;2023-01-15T01:38:30;100609.96;;;5.82;72.29
55044;BME280;54902;50.420;18.854;2023-01-15T01:39:02;100594.69;;;5.81;72.27
55044;BME280;54902;50.420;18.854;2023-01-15T01:39:33;100604.54;;;5.82;72.30
55044;BME280;54902;50.420;18.854;2023-01-15T01:40:04;100590.98;;;5.82;72.29
55044;BME280;54902;50.420;18.854;2023-01-15T01:40:37;100600.11;;;5.81;72.30
55044;BME280;54902;50.420;18.854;2023-01-15T01:41:10;100591.98;;;5.81;72.29
55044;BME280;54902;50.420;18.854;2023-01-15T01:41:42;100590.13;;;5.81;72.27
55044;BME280;54902;50.420;18.854;2023-01-15T01:42:15;100591.98;;;5.81;72.24
55044;BME280;54902;50.420;18.854;2023-01-15T01:42:46;100589.27;;;5.81;72.28
55044;BME280;54902;50.420;18.854;2023-01-15T01:43:21;100580.15;;;5.82;72.27
55044;BME280;54902;50.420;18.854;2023-01-15T01:43:59;100586.56;;;5.81;72.30
55044;BME280;54902;50.420;18.854;2023-01-15T01:45:21;100587.42;;;5.81;72.27
55044;BME280;54902;50.420;18.854;2023-01-15T01:45:55;100572.02;;;5.82;72.16
55044;BME280;54902;50.420;18.854;2023-01-15T01:46:28;100584.71;;;5.81;72.17
55044;BME280;54902;50.420;18.854;2023-01-15T01:47:09;100572.02;;;5.82;72.20
55044;BME280;54902;50.420;18.854;2023-01-15T01:47:45;100580.15;;;5.82;72.19
55044;BME280;54902;50.420;18.854;2023-01-15T01:48:20;100579.39;;;5.80;72.14
55044;BME280;54902;50.420;18.854;2023-01-15T01:49:38;100575.73;;;5.81;72.15
55044;BME280;54902;50.420;18.854;2023-01-15T01:50:12;100563.03;;;5.81;72.14
55044;BME280;54902;50.420;18.854;2023-01-15T01:50:45;100555.00;;;5.80;72.08
55044;BME280;54902;50.420;18.854;2023-01-15T01:51:18;100562.17;;;5.81;72.03
55044;BME280;54902;50.420;18.854;2023-01-15T01:51:57;100563.03;;;5.81;72.03
55044;BME280;54902;50.420;18.854;2023-01-15T01:52:41;100557.72;;;5.80;72.02
55044;BME280;54902;50.420;18.854;2023-01-15T01:53:20;100558.68;;;5.79;72.00
55044;BME280;54902;50.420;18.854;2023-01-15T01:53:52;100561.28;;;5.80;72.06
55044;BME280;54902;50.420;18.854;2023-01-15T01:54:24;100558.57;;;5.80;72.07
55044;BME280;54902;50.420;18.854;2023-01-15T01:54:56;100566.70;;;5.80;72.04
55044;BME280;54902;50.420;18.854;2023-01-15T01:55:29;100557.72;;;5.80;72.03
55044;BME280;54902;50.420;18.854;2023-01-15T01:56:02;100554.04;;;5.81;72.07
55044;BME280;54902;50.420;18.854;2023-01-15T01:56:35;100553.15;;;5.80;72.07
55044;BME280;54902;50.420;18.854;2023-01-15T01:57:07;100549.48;;;5.81;72.04
55044;BME280;54902;50.420;18.854;2023-01-15T01:57:39;100541.45;;;5.80;71.96
55044;BME280;54902;50.420;18.854;2023-01-15T01:58:11;100538.74;;;5.80;71.98
55044;BME280;54902;50.420;18.854;2023-01-15T01:58:47;100540.49;;;5.81;71.98
55044;BME280;54902;50.420;18.854;2023-01-15T01:59:20;100547.73;;;5.80;72.02
55044;BME280;54902;50.420;18.854;2023-01-15T01:59:52;100538.74;;;5.80;71.97
55044;BME280;54902;50.420;18.854;2023-01-15T02:00:23;100529.65;;;5.81;71.94
55044;BME280;54902;50.420;18.854;2023-01-15T02:00:55;100544.17;;;5.80;71.81
55044;BME280;54902;50.420;18.854;2023-01-15T02:01:26;100545.91;;;5.81;71.90
55044;BME280;54902;50.420;18.854;2023-01-15T02:01:58;100545.91;;;5.81;71.94
55044;BME280;54902;50.420;18.854;2023-01-15T02:02:30;100549.59;;;5.80;71.97
55044;BME280;54902;50.420;18.854;2023-01-15T02:03:04;100551.33;;;5.81;71.92
55044;BME280;54902;50.420;18.854;2023-01-15T02:03:37;100553.15;;;5.80;71.88
55044;BME280;54902;50.420;18.854;2023-01-15T02:04:09;100557.72;;;5.80;71.80
55044;BME280;54902;50.420;18.854;2023-01-15T02:04:41;100555.86;;;5.80;71.82
55044;BME280;54902;50.420;18.854;2023-01-15T02:05:20;100550.43;;;5.80;71.86
55044;BME280;54902;50.420;18.854;2023-01-15T02:05:55;100562.17;;;5.81;71.89
55044;BME280;54902;50.420;18.854;2023-01-15T02:06:28;100560.31;;;5.81;71.86
55044;BME280;54902;50.420;18.854;2023-01-15T02:06:59;100562.17;;;5.81;71.76
55044;BME280;54902;50.420;18.854;2023-01-15T02:07:31;100557.60;;;5.81;71.77
55044;BME280;54902;50.420;18.854;2023-01-15T02:08:05;100554.90;;;5.81;71.77
55044;BME280;54902;50.420;18.854;2023-01-15T02:08:36;100554.04;;;5.81;71.81
55044;BME280;54902;50.420;18.854;2023-01-15T02:09:09;100547.62;;;5.82;71.84
55044;BME280;54902;50.420;18.854;2023-01-15T02:09:40;100535.65;;;5.72;71.84
55044;BME280;54902;50.420;18.854;2023-01-15T02:10:15;100550.33;;;5.82;71.85
55044;BME280;54902;50.420;18.854;2023-01-15T02:10:49;100549.37;;;5.83;71.83
55044;BME280;54902;50.420;18.854;2023-01-15T02:11:22;100547.62;;;5.82;71.85
55044;BME280;54902;50.420;18.854;2023-01-15T02:12:08;100550.33;;;5.82;71.85
55044;BME280;54902;50.420;18.854;2023-01-15T02:12:37;100542.20;;;5.82;71.89
55044;BME280;54902;50.420;18.854;2023-01-15T02:13:16;100551.10;;;5.84;71.88
55044;BME280;54902;50.420;18.854;2023-01-15T02:14:38;100528.56;;;5.83;71.79
55044;BME280;54902;50.420;18.854;2023-01-15T02:15:14;100535.81;;;5.83;71.80
55044;BME280;54902;50.420;18.854;2023-01-15T02:15:57;100532.13;;;5.84;71.77
55044;BME280;54902;50.420;18.854;2023-01-15T02:16:41;100531.17;;;5.85;71.81
55044;BME280;54902;50.420;18.854;2023-01-15T02:17:17;100533.88;;;5.85;71.83
55044;BME280;54902;50.420;18.854;2023-01-15T02:17:58;100547.42;;;5.85;71.77
55044;BME280;54902;50.420;18.854;2023-01-15T02:20:54;100546.47;;;5.86;71.77
55044;BME280;54902;50.420;18.854;2023-01-15T02:27:08;100511.98;;;5.88;71.66
55044;BME280;54902;50.420;18.854;2023-01-15T02:27:46;100517.40;;;5.88;71.65
55044;BME280;54902;50.420;18.854;2023-01-15T02:28:26;100510.12;;;5.88;71.62
55044;BME280;54902;50.420;18.854;2023-01-15T02:28:59;100512.83;;;5.88;71.61
55044;BME280;54902;50.420;18.854;2023-01-15T02:31:04;100511.01;;;5.89;71.51
55044;BME280;54902;50.420;18.854;2023-01-15T02:31:40;100501.02;;;5.89;71.57
55044;BME280;54902;50.420;18.854;2023-01-15T02:32:26;100500.17;;;5.89;71.55
55044;BME280;54902;50.420;18.854;2023-01-15T02:33:18;100501.91;;;5.90;71.52
55044;BME280;54902;50.420;18.854;2023-01-15T02:33:53;100504.63;;;5.90;71.55
55044;BME280;54902;50.420;18.854;2023-01-15T02:34:28;100514.47;;;5.91;71.55
55044;BME280;54902;50.420;18.854;2023-01-15T02:35:06;100512.64;;;5.91;71.47
55044;BME280;54902;50.420;18.854;2023-01-15T02:35:47;100517.17;;;5.91;71.47
55044;BME280;54902;50.420;18.854;2023-01-15T02:36:23;100514.47;;;5.91;71.44
55044;BME280;54902;50.420;18.854;2023-01-15T02:37:01;100515.36;;;5.91;71.34
55044;BME280;54902;50.420;18.854;2023-01-15T02:37:38;100521.63;;;5.92;71.34
55044;BME280;54902;50.420;18.854;2023-01-15T02:38:14;100527.05;;;5.92;71.41
55044;BME280;54902;50.420;18.854;2023-01-15T02:38:50;100527.91;;;5.92;71.43
55044;BME280;54902;50.420;18.854;2023-01-15T02:39:24;100520.77;;;5.91;71.33
55044;BME280;54902;50.420;18.854;2023-01-15T02:39:59;100517.06;;;5.92;71.36
55044;BME280;54902;50.420;18.854;2023-01-15T02:40:34;100508.08;;;5.92;71.29
55044;BME280;54902;50.420;18.854;2023-01-15T02:41:07;100510.67;;;5.93;71.27
55044;BME280;54902;50.420;18.854;2023-01-15T02:41:50;100511.65;;;5.92;71.28
55044;BME280;54902;50.420;18.854;2023-01-15T02:42:24;100517.95;;;5.93;71.25
55044;BME280;54902;50.420;18.854;2023-01-15T02:42:58;100516.21;;;5.92;71.20
55044;BME280;54902;50.420;18.854;2023-01-15T02:43:34;100508.85;;;5.94;71.21
55044;BME280;54902;50.420;18.854;2023-01-15T02:44:08;100516.09;;;5.93;71.24
55044;BME280;54902;50.420;18.854;2023-01-15T02:44:45;100512.53;;;5.93;71.19
55044;BME280;54902;50.420;18.854;2023-01-15T02:45:21;100514.27;;;5.94;71.21
55044;BME280;54902;50.420;18.854;2023-01-15T02:45:57;100515.99;;;5.95;71.23
55044;BME280;54902;50.420;18.854;2023-01-15T02:46:32;100512.53;;;5.93;71.28
55044;BME280;54902;50.420;18.854;2023-01-15T02:47:06;100514.27;;;5.94;71.29
55044;BME280;54902;50.420;18.854;2023-01-15T02:47:41;100514.27;;;5.94;71.22
55044;BME280;54902;50.420;18.854;2023-01-15T02:48:16;100515.99;;;5.95;71.17
55044;BME280;54902;50.420;18.854;2023-01-15T02:48:52;100522.30;;;5.95;71.17
55044;BME280;54902;50.420;18.854;2023-01-15T02:49:25;100512.30;;;5.96;71.18
55044;BME280;54902;50.420;18.854;2023-01-15T02:50:01;100513.16;;;5.96;71.17
55044;BME280;54902;50.420;18.854;2023-01-15T02:50:36;100518.59;;;5.96;71.11
55044;BME280;54902;50.420;18.854;2023-01-15T02:51:17;100514.05;;;5.97;71.11
55044;BME280;54902;50.420;18.854;2023-01-15T02:52:16;100508.63;;;5.97;71.07
55044;BME280;54902;50.420;18.854;2023-01-15T02:52:41;100518.52;;;5.98;71.12
55044;BME280;54902;50.420;18.854;2023-01-15T02:53:21;100510.38;;;5.98;71.07
55044;BME280;54902;50.420;18.854;2023-01-15T02:53:57;100507.67;;;5.98;71.06
55044;BME280;54902;50.420;18.854;2023-01-15T02:54:34;100503.10;;;5.98;71.01
55044;BME280;54902;50.420;18.854;2023-01-15T02:55:14;100509.38;;;5.99;71.07
55044;BME280;54902;50.420;18.854;2023-01-15T02:55:48;100506.66;;;5.99;71.12
55044;BME280;54902;50.420;18.854;2023-01-15T02:56:27;100509.38;;;5.99;71.13
55044;BME280;54902;50.420;18.854;2023-01-15T02:57:01;100502.13;;;5.99;71.19
55044;BME280;54902;50.420;18.854;2023-01-15T02:57:36;100505.70;;;6.00;71.21
55044;BME280;54902;50.420;18.854;2023-01-15T02:58:12;100508.41;;;6.00;71.04
55044;BME280;54902;50.420;18.854;2023-01-15T02:58:44;100510.16;;;6.01;71.16
55044;BME280;54902;50.420;18.854;2023-01-15T02:59:23;100497.56;;;6.00;71.19
55044;BME280;54902;50.420;18.854;2023-01-15T02:59:59;100504.73;;;6.01;71.18
55044;BME280;54902;50.420;18.854;2023-01-15T03:00:35;100508.30;;;6.01;71.19
55044;BME280;54902;50.420;18.854;2023-01-15T03:01:15;100502.88;;;6.01;71.25
55044;BME280;54902;50.420;18.854;2023-01-15T03:01:56;100510.05;;;6.02;71.24
55044;BME280;54902;50.420;18.854;2023-01-15T03:02:35;100510.05;;;6.02;71.20
55044;BME280;54902;50.420;18.854;2023-01-15T03:03:17;100509.08;;;6.03;71.19
55044;BME280;54902;50.420;18.854;2023-01-15T03:04:41;100488.24;;;6.04;71.23
55044;BME280;54902;50.420;18.854;2023-01-15T03:05:21;100500.84;;;6.05;71.18
55044;BME280;54902;50.420;18.854;2023-01-15T03:06:43;100498.12;;;6.05;71.26
55044;BME280;54902;50.420;18.854;2023-01-15T03:07:21;100501.69;;;6.05;71.26
55044;BME280;54902;50.420;18.854;2023-01-15T03:08:00;100504.28;;;6.07;71.28
55044;BME280;54902;50.420;18.854;2023-01-15T03:08:32;100497.16;;;6.06;71.29
55044;BME280;54902;50.420;18.854;2023-01-15T03:09:05;100504.28;;;6.07;71.27
55044;BME280;54902;50.420;18.854;2023-01-15T03:09:37;100503.43;;;6.06;71.27
55044;BME280;54902;50.420;18.854;2023-01-15T03:10:09;100509.70;;;6.07;71.30